createdAt,value
2022-10-13T00:01:28.890Z,16.08
2022-10-13T00:03:56.691Z,15.45
2022-10-13T00:06:26.316Z,17.17
2022-10-13T00:08:54.294Z,16.77
2022-10-13T00:11:23.465Z,16.63
2022-10-13T00:13:51.178Z,17.70
2022-10-13T00:16:19.862Z,16.45
2022-10-13T00:18:47.515Z,16.80
2022-10-13T00:21:16.355Z,17.92
2022-10-13T00:23:43.821Z,16.83
2022-10-13T00:26:12.967Z,18.80
2022-10-13T00:28:40.498Z,17.90
2022-10-13T00:31:18.347Z,17.85
2022-10-13T00:33:45.972Z,17.20
2022-10-13T00:36:13.413Z,15.85
2022-10-13T00:38:40.756Z,15.60
2022-10-13T00:41:08.241Z,15.13
2022-10-13T00:43:54.208Z,16.02
2022-10-13T00:46:22.809Z,16.10
2022-10-13T00:48:51.613Z,15.55
2022-10-13T00:51:21.064Z,14.88
2022-10-13T00:53:49.303Z,15.57
2022-10-13T00:56:19.132Z,15.30
2022-10-13T00:58:48.344Z,14.50
2022-10-13T01:01:16.000Z,15.27
2022-10-13T01:03:43.798Z,15.77
2022-10-13T01:06:12.933Z,15.95
2022-10-13T01:08:40.235Z,14.70
2022-10-13T01:11:21.788Z,13.57
2022-10-13T01:14:08.373Z,15.27
2022-10-13T01:16:41.290Z,15.05
2022-10-13T01:19:14.585Z,14.90
2022-10-13T01:21:42.013Z,14.45
2022-10-13T01:24:17.365Z,14.60
2022-10-13T01:26:44.676Z,14.50
2022-10-13T01:29:30.670Z,13.95
2022-10-13T01:32:17.618Z,14.35
2022-10-13T01:34:51.413Z,14.10
2022-10-13T01:37:41.062Z,14.80
2022-10-13T01:40:17.265Z,14.60
2022-10-13T01:42:50.692Z,15.18
2022-10-13T01:45:20.185Z,14.43
2022-10-13T01:47:47.971Z,14.15
2022-10-13T01:50:16.827Z,14.35
2022-10-13T01:52:44.695Z,14.90
2022-10-13T01:55:13.254Z,15.20
2022-10-13T01:57:41.952Z,14.82
2022-10-13T02:00:14.084Z,14.82
2022-10-13T02:02:41.786Z,13.43
2022-10-13T02:05:11.998Z,13.88
2022-10-13T02:07:45.839Z,13.20
2022-10-13T02:10:19.280Z,15.77
2022-10-13T02:12:51.975Z,17.17
2022-10-13T02:15:22.540Z,16.63
2022-10-13T02:17:51.601Z,16.40
2022-10-13T02:20:20.215Z,15.65
2022-10-13T02:22:48.860Z,17.15
2022-10-13T02:25:16.406Z,16.50
2022-10-13T02:27:44.146Z,15.32
2022-10-13T02:30:20.693Z,14.35
2022-10-13T02:32:48.150Z,16.13
2022-10-13T02:35:15.932Z,14.55
2022-10-13T02:37:43.308Z,15.32
2022-10-13T02:40:10.992Z,15.65
2022-10-13T02:42:38.313Z,15.95
2022-10-13T02:45:06.002Z,15.80
2022-10-13T02:47:33.472Z,15.05
2022-10-13T02:50:00.946Z,15.98
2022-10-13T02:52:28.391Z,15.52
2022-10-13T02:54:55.796Z,14.10
2022-10-13T02:57:23.481Z,14.63
2022-10-13T02:59:51.182Z,14.57
2022-10-13T03:02:19.264Z,15.48
2022-10-13T03:04:47.339Z,14.80
2022-10-13T03:07:14.766Z,14.85
2022-10-13T03:09:42.138Z,14.82
2022-10-13T03:12:09.583Z,16.05
2022-10-13T03:14:37.392Z,15.95
2022-10-13T03:17:04.685Z,16.67
2022-10-13T03:19:32.242Z,15.95
2022-10-13T03:21:59.623Z,15.43
2022-10-13T03:24:26.973Z,17.42
2022-10-13T03:26:54.516Z,15.77
2022-10-13T03:29:22.935Z,16.75
2022-10-13T03:31:50.340Z,16.77
2022-10-13T03:34:20.321Z,15.15
2022-10-13T03:36:48.053Z,16.25
2022-10-13T03:39:15.357Z,15.00
2022-10-13T03:41:43.122Z,15.38
2022-10-13T03:44:13.451Z,15.68
2022-10-13T03:46:40.913Z,16.30
2022-10-13T03:49:08.325Z,17.67
2022-10-13T03:51:35.973Z,17.33
2022-10-13T03:54:03.657Z,18.05
2022-10-13T03:56:31.206Z,16.58
2022-10-13T03:58:59.940Z,17.17
2022-10-13T04:01:28.525Z,16.60
2022-10-13T04:03:56.760Z,16.33
2022-10-13T04:06:25.394Z,15.63
2022-10-13T04:08:53.489Z,17.92
2022-10-13T04:11:21.515Z,17.02
2022-10-13T04:13:49.080Z,18.10
2022-10-13T04:16:21.527Z,18.55
2022-10-13T04:18:52.349Z,19.02
2022-10-13T04:21:20.143Z,18.48
2022-10-13T04:23:47.630Z,18.70
2022-10-13T04:26:16.556Z,18.67
2022-10-13T04:28:44.133Z,19.20
2022-10-13T04:31:11.421Z,17.38
2022-10-13T04:33:39.167Z,16.67
2022-10-13T04:36:07.530Z,18.05
2022-10-13T04:38:35.237Z,16.38
2022-10-13T04:41:06.298Z,17.08
2022-10-13T04:43:34.059Z,17.35
2022-10-13T04:46:02.603Z,16.77
2022-10-13T04:48:30.168Z,15.18
2022-10-13T04:51:01.744Z,15.60
2022-10-13T04:53:29.519Z,16.10
2022-10-13T04:55:57.660Z,16.25
2022-10-13T04:58:25.162Z,16.83
2022-10-13T05:00:52.978Z,15.32
2022-10-13T05:03:20.353Z,17.58
2022-10-13T05:05:47.666Z,16.27
2022-10-13T05:08:15.001Z,16.10
2022-10-13T05:10:42.450Z,15.55
2022-10-13T05:13:09.992Z,16.17
2022-10-13T05:15:39.916Z,16.33
2022-10-13T05:18:07.648Z,16.98
2022-10-13T05:20:34.947Z,16.77
2022-10-13T05:23:02.592Z,17.00
2022-10-13T05:25:33.723Z,16.40
2022-10-13T05:28:01.731Z,17.38
2022-10-13T05:30:29.473Z,18.13
2022-10-13T05:32:56.768Z,18.08
2022-10-13T05:35:24.250Z,20.00
2022-10-13T05:37:51.587Z,20.63
2022-10-13T05:40:21.496Z,20.83
2022-10-13T05:42:52.612Z,19.23
2022-10-13T05:45:20.633Z,19.33
2022-10-13T05:47:48.294Z,19.42
2022-10-13T05:50:15.979Z,19.25
2022-10-13T05:52:44.034Z,18.85
2022-10-13T05:55:12.123Z,17.85
2022-10-13T05:57:41.462Z,18.13
2022-10-13T06:00:10.285Z,19.23
2022-10-13T06:02:41.009Z,18.73
2022-10-13T06:05:12.061Z,18.63
2022-10-13T06:07:39.617Z,21.30
2022-10-13T06:10:07.265Z,20.40
2022-10-13T06:12:34.639Z,19.70
2022-10-13T06:15:02.140Z,22.08
2022-10-13T06:17:29.802Z,23.52
2022-10-13T06:19:57.234Z,22.33
2022-10-13T06:22:24.976Z,22.10
2022-10-13T06:24:52.678Z,22.13
2022-10-13T06:27:20.362Z,21.45
2022-10-13T06:29:48.283Z,21.05
2022-10-13T06:32:15.651Z,22.10
2022-10-13T06:34:43.532Z,21.70
2022-10-13T06:37:11.213Z,21.27
2022-10-13T06:39:38.546Z,19.98
2022-10-13T06:42:06.033Z,21.58
2022-10-13T06:44:33.675Z,19.98
2022-10-13T06:47:01.178Z,21.27
2022-10-13T06:49:28.912Z,20.23
2022-10-13T06:51:56.183Z,20.92
2022-10-13T06:54:23.634Z,21.17
2022-10-13T06:56:51.850Z,20.13
2022-10-13T06:59:19.513Z,21.08
2022-10-13T07:01:46.872Z,19.42
2022-10-13T07:04:14.516Z,20.25
2022-10-13T07:06:42.095Z,18.23
2022-10-13T07:09:09.612Z,17.65
2022-10-13T07:11:37.077Z,18.65
2022-10-13T07:14:04.487Z,15.40
2022-10-13T07:16:31.982Z,15.13
2022-10-13T07:18:59.466Z,15.77
2022-10-13T07:21:26.858Z,14.60
2022-10-13T07:23:54.160Z,15.45
2022-10-13T07:26:21.785Z,15.85
2022-10-13T07:28:49.192Z,15.43
2022-10-13T07:31:17.943Z,13.73
2022-10-13T07:33:46.594Z,14.25
2022-10-13T07:36:14.244Z,15.65
2022-10-13T07:38:41.789Z,15.18
2022-10-13T07:41:10.738Z,16.70
2022-10-13T07:43:38.036Z,14.02
2022-10-13T07:46:06.320Z,15.38
2022-10-13T07:48:34.125Z,14.82
2022-10-13T07:51:04.950Z,15.55
2022-10-13T07:53:32.701Z,15.75
2022-10-13T07:56:04.359Z,15.90
2022-10-13T07:58:31.704Z,15.43
2022-10-13T08:01:00.352Z,14.82
2022-10-13T08:03:28.218Z,14.85
2022-10-13T08:05:55.903Z,16.55
2022-10-13T08:08:23.606Z,14.98
2022-10-13T08:10:51.339Z,15.75
2022-10-13T08:13:18.870Z,32.50
2022-10-13T08:15:46.809Z,17.50
2022-10-13T08:18:15.522Z,16.88
2022-10-13T08:20:43.887Z,16.08
2022-10-13T08:23:11.980Z,16.65
2022-10-13T08:25:40.605Z,15.95
2022-10-13T08:28:08.636Z,17.10
2022-10-13T08:30:36.220Z,15.57
2022-10-13T08:33:04.048Z,16.33
2022-10-13T08:35:34.932Z,17.23
2022-10-13T08:38:02.819Z,17.25
2022-10-13T08:40:30.283Z,15.15
2022-10-13T08:43:00.500Z,17.15
2022-10-13T08:45:45.643Z,17.75
2022-10-13T08:48:16.933Z,16.73
2022-10-13T08:50:45.725Z,15.82
2022-10-13T08:53:20.070Z,15.85
2022-10-13T08:55:52.761Z,17.23
2022-10-13T08:58:22.690Z,17.08
2022-10-13T09:00:52.976Z,16.83
2022-10-13T09:03:30.742Z,17.58
2022-10-13T09:06:01.481Z,17.05
2022-10-13T09:08:29.363Z,18.88
2022-10-13T09:10:56.777Z,19.50
2022-10-13T09:13:27.379Z,19.30
2022-10-13T09:15:56.502Z,21.98
2022-10-13T09:18:29.208Z,18.70
2022-10-13T09:21:16.914Z,18.80
2022-10-13T09:23:44.476Z,18.38
2022-10-13T09:26:19.157Z,19.02
2022-10-13T09:28:46.653Z,18.20
2022-10-13T09:31:20.508Z,16.83
2022-10-13T09:33:49.162Z,16.88
2022-10-13T09:36:16.742Z,16.25
2022-10-13T09:38:46.074Z,16.35
2022-10-13T09:41:15.587Z,17.15
2022-10-13T09:43:49.052Z,16.83
2022-10-13T09:46:27.755Z,16.50
2022-10-13T09:48:57.352Z,17.17
2022-10-13T09:51:35.805Z,15.70
2022-10-13T09:54:03.654Z,15.48
2022-10-13T09:56:40.948Z,14.30
2022-10-13T09:59:22.615Z,15.45
2022-10-13T10:01:51.269Z,16.33
2022-10-13T10:04:21.095Z,14.60
2022-10-13T10:06:48.442Z,15.10
2022-10-13T10:09:42.383Z,15.93
2022-10-13T10:12:14.291Z,14.60
2022-10-13T10:14:42.021Z,14.40
2022-10-13T10:17:21.504Z,13.70
2022-10-13T10:19:52.475Z,13.65
2022-10-13T10:22:27.050Z,13.38
2022-10-13T10:24:54.593Z,14.20
2022-10-13T10:27:43.569Z,14.02
2022-10-13T10:30:19.794Z,12.93
2022-10-13T10:32:53.246Z,13.18
2022-10-13T10:35:30.001Z,13.93
2022-10-13T10:38:06.518Z,13.07
2022-10-13T10:40:33.801Z,12.95
2022-10-13T10:43:01.074Z,13.50
2022-10-13T10:45:35.330Z,14.00
2022-10-13T10:48:05.636Z,14.63
2022-10-13T10:50:33.641Z,13.95
2022-10-13T10:53:07.402Z,13.07
2022-10-13T10:55:34.812Z,13.77
2022-10-13T10:58:02.243Z,13.20
2022-10-13T11:00:29.719Z,13.52
2022-10-13T11:03:15.993Z,13.75
2022-10-13T11:05:58.310Z,13.07
2022-10-13T11:08:28.757Z,14.02
2022-10-13T11:11:15.104Z,12.98
2022-10-13T11:13:53.064Z,13.65
2022-10-13T11:16:34.518Z,13.32
2022-10-13T11:19:20.820Z,13.68
2022-10-13T11:21:53.867Z,14.18
2022-10-13T11:24:40.178Z,14.80
2022-10-13T11:27:11.180Z,13.95
2022-10-13T11:29:45.315Z,14.43
2022-10-13T11:32:28.177Z,15.10
2022-10-13T11:35:01.739Z,14.55
2022-10-13T11:37:41.347Z,14.98
2022-10-13T11:40:25.710Z,13.10
2022-10-13T11:43:11.438Z,13.10
2022-10-13T11:45:49.187Z,13.85
2022-10-13T11:48:16.510Z,12.75
2022-10-13T11:51:06.848Z,12.50
2022-10-13T11:53:41.239Z,13.30
2022-10-13T11:58:43.028Z,12.18
2022-10-13T12:01:14.577Z,13.68
2022-10-13T12:03:43.538Z,12.77
2022-10-13T12:06:17.167Z,12.60
2022-10-13T12:08:52.418Z,12.32
2022-10-13T12:11:27.875Z,12.07
2022-10-13T12:13:55.680Z,12.35
2022-10-13T12:16:23.458Z,11.52
2022-10-13T12:18:50.963Z,12.98
2022-10-13T12:21:20.282Z,11.63
2022-10-13T12:23:48.490Z,11.13
2022-10-13T12:26:24.346Z,12.77
2022-10-13T12:29:11.942Z,12.20
2022-10-13T12:31:42.796Z,12.48
2022-10-13T12:34:21.364Z,12.57
2022-10-13T12:39:20.982Z,12.00
2022-10-13T12:41:48.963Z,12.63
2022-10-13T12:44:22.034Z,11.18
2022-10-13T12:46:52.620Z,12.32
2022-10-13T12:49:24.876Z,11.63
2022-10-13T12:51:53.960Z,12.57
2022-10-13T12:54:26.328Z,10.35
2022-10-13T12:56:56.466Z,11.15
2022-10-13T12:59:24.563Z,11.85
2022-10-13T13:01:56.355Z,12.15
2022-10-13T13:04:23.777Z,12.18
2022-10-13T13:06:59.508Z,11.43
2022-10-13T13:09:27.765Z,11.63
2022-10-13T13:12:05.783Z,11.73
2022-10-13T13:14:36.762Z,11.23
2022-10-13T13:17:04.208Z,10.90
2022-10-13T13:19:33.295Z,12.32
2022-10-13T13:22:00.662Z,11.30
2022-10-13T13:24:39.231Z,11.30
2022-10-13T13:27:26.507Z,10.63
2022-10-13T13:29:55.075Z,11.60
2022-10-13T13:32:23.413Z,11.65
2022-10-13T13:34:50.743Z,11.30
2022-10-13T13:37:24.160Z,12.13
2022-10-13T13:39:51.741Z,10.40
2022-10-13T13:42:19.128Z,10.45
2022-10-13T13:44:46.728Z,13.35
2022-10-13T13:47:17.052Z,11.45
2022-10-13T13:49:44.899Z,11.15
2022-10-13T13:52:12.621Z,10.48
2022-10-13T13:54:40.214Z,11.38
2022-10-13T13:57:07.511Z,11.45
2022-10-13T13:59:35.199Z,11.13
2022-10-13T14:02:02.968Z,11.00
2022-10-13T14:04:30.802Z,11.98
2022-10-13T14:06:58.234Z,10.82
2022-10-13T14:09:25.654Z,11.35
2022-10-13T14:11:52.928Z,11.00
2022-10-13T14:14:20.406Z,11.95
2022-10-13T14:16:47.760Z,11.77
2022-10-13T14:19:15.271Z,11.93
2022-10-13T14:21:42.678Z,28.45
2022-10-13T14:24:11.148Z,13.63
2022-10-13T14:26:38.895Z,12.63
2022-10-13T14:29:06.478Z,11.32
2022-10-13T14:31:34.100Z,12.40
2022-10-13T14:34:01.468Z,11.13
2022-10-13T14:36:29.048Z,11.30
2022-10-13T14:38:57.159Z,12.13
2022-10-13T14:41:24.634Z,10.70
2022-10-13T14:43:55.671Z,11.35
2022-10-13T14:46:23.418Z,11.32
2022-10-13T14:48:51.038Z,11.00
2022-10-13T14:51:18.412Z,11.07
2022-10-13T14:53:46.812Z,13.18
2022-10-13T14:56:27.720Z,12.32
2022-10-13T14:58:56.015Z,11.18
2022-10-13T15:01:23.725Z,10.57
2022-10-13T15:03:51.212Z,10.63
2022-10-13T15:06:22.776Z,11.02
2022-10-13T15:08:50.716Z,11.48
2022-10-13T15:11:18.977Z,11.35
2022-10-13T15:13:46.593Z,20.92
2022-10-13T15:16:18.394Z,14.38
2022-10-13T15:18:46.072Z,11.50
2022-10-13T15:21:13.823Z,10.98
2022-10-13T15:23:41.274Z,11.02
2022-10-13T15:26:09.111Z,10.63
2022-10-13T15:28:41.943Z,10.80
2022-10-13T15:31:09.714Z,10.88
2022-10-13T15:33:37.354Z,11.57
2022-10-13T15:36:04.999Z,12.45
2022-10-13T15:38:32.507Z,12.20
2022-10-13T15:41:04.605Z,12.15
2022-10-13T15:43:32.708Z,13.07
2022-10-13T15:46:04.591Z,12.38
2022-10-13T15:48:32.498Z,12.82
2022-10-13T15:51:00.238Z,12.70
2022-10-13T15:53:28.036Z,12.95
2022-10-13T15:55:55.581Z,12.63
2022-10-13T15:58:23.037Z,12.73
2022-10-13T16:00:50.543Z,12.77
2022-10-13T16:03:19.343Z,12.68
2022-10-13T16:05:47.328Z,16.95
2022-10-13T16:08:15.058Z,24.98
2022-10-13T16:10:43.617Z,29.70
2022-10-13T16:13:14.043Z,22.98
2022-10-13T16:15:41.526Z,23.25
2022-10-13T16:18:09.169Z,19.25
2022-10-13T16:20:38.883Z,21.85
2022-10-13T16:23:06.311Z,17.45
2022-10-13T16:25:34.000Z,16.60
2022-10-13T16:28:01.318Z,16.42
2022-10-13T16:30:30.696Z,15.77
2022-10-13T16:32:58.770Z,15.98
2022-10-13T16:35:26.500Z,16.42
2022-10-13T16:37:53.837Z,17.48
2022-10-13T16:40:21.236Z,16.63
2022-10-13T16:42:48.542Z,16.02
2022-10-13T16:45:16.068Z,17.15
2022-10-13T16:47:43.711Z,16.70
2022-10-13T16:50:11.516Z,17.20
2022-10-13T16:52:39.063Z,17.10
2022-10-13T16:55:06.845Z,17.70
2022-10-13T16:57:34.608Z,17.48
2022-10-13T17:00:01.909Z,19.35
2022-10-13T17:02:29.446Z,19.70
2022-10-13T17:04:56.778Z,18.58
2022-10-13T17:07:24.312Z,18.83
2022-10-13T17:09:51.807Z,21.15
2022-10-13T17:12:19.189Z,20.60
2022-10-13T17:14:48.615Z,20.90
2022-10-13T17:17:16.285Z,23.63
2022-10-13T17:19:44.353Z,24.58
2022-10-13T17:22:11.746Z,23.23
2022-10-13T17:24:39.751Z,21.42
2022-10-13T17:27:07.096Z,20.88
2022-10-13T17:29:34.888Z,19.08
2022-10-13T17:32:02.197Z,18.65
2022-10-13T17:34:29.588Z,18.27
2022-10-13T17:36:56.980Z,17.98
2022-10-13T17:39:24.437Z,18.08
2022-10-13T17:41:51.719Z,17.05
2022-10-13T17:44:21.060Z,17.73
2022-10-13T17:46:50.124Z,16.95
2022-10-13T17:49:17.946Z,16.70
2022-10-13T17:51:45.780Z,19.13
2022-10-13T17:54:16.359Z,20.13
2022-10-13T17:56:45.242Z,20.65
2022-10-13T17:59:13.094Z,19.48
2022-10-13T18:01:42.144Z,19.50
2022-10-13T18:04:14.040Z,19.27
2022-10-13T18:06:43.883Z,17.63
2022-10-13T18:09:15.800Z,17.08
2022-10-13T18:11:49.430Z,17.02
2022-10-13T18:14:18.520Z,16.17
2022-10-13T18:16:46.789Z,16.80
2022-10-13T18:19:14.441Z,17.02
2022-10-13T18:21:41.886Z,15.50
2022-10-13T18:24:10.494Z,16.55
2022-10-13T18:26:37.749Z,16.48
2022-10-13T18:29:06.181Z,16.45
2022-10-13T18:31:34.414Z,16.63
2022-10-13T18:34:03.153Z,15.63
2022-10-13T18:36:40.092Z,16.17
2022-10-13T18:39:08.668Z,16.55
2022-10-13T18:41:36.637Z,14.98
2022-10-13T18:44:03.996Z,15.63
2022-10-13T18:46:31.615Z,15.90
2022-10-13T18:48:58.841Z,15.32
2022-10-13T18:51:26.520Z,16.48
2022-10-13T18:53:53.774Z,16.50
2022-10-13T18:56:25.001Z,15.93
2022-10-13T18:58:58.403Z,15.15
2022-10-13T19:03:54.749Z,15.73
2022-10-13T19:06:26.844Z,16.55
2022-10-13T19:08:58.386Z,15.30
2022-10-13T19:11:25.674Z,14.68
2022-10-13T19:13:53.131Z,14.30
2022-10-13T19:16:22.249Z,14.55
2022-10-13T19:18:50.138Z,15.05
2022-10-13T19:21:18.635Z,13.77
2022-10-13T19:23:45.906Z,14.82
2022-10-13T19:26:17.466Z,14.27
2022-10-13T19:28:45.265Z,14.05
2022-10-13T19:31:16.993Z,13.88
2022-10-13T19:33:45.286Z,13.15
2022-10-13T19:36:13.614Z,13.25
2022-10-13T19:38:40.861Z,13.93
2022-10-13T19:41:08.319Z,13.32
2022-10-13T19:43:35.672Z,14.70
2022-10-13T19:46:02.915Z,31.05
2022-10-13T19:48:30.137Z,16.42
2022-10-13T19:50:57.386Z,15.63
2022-10-13T19:53:24.622Z,13.40
2022-10-13T19:55:51.822Z,12.93
2022-10-13T19:58:19.144Z,12.82
2022-10-13T20:00:46.804Z,12.30
2022-10-13T20:03:14.953Z,13.55
2022-10-13T20:05:42.182Z,13.05
2022-10-13T20:08:10.467Z,11.95
2022-10-13T20:10:41.660Z,13.63
2022-10-13T20:13:09.590Z,13.45
2022-10-13T20:15:44.262Z,16.42
2022-10-13T20:18:13.230Z,21.15
2022-10-13T20:20:41.458Z,16.95
2022-10-13T20:23:09.275Z,17.67
2022-10-13T20:25:38.034Z,18.00
2022-10-13T20:28:05.461Z,16.75
2022-10-13T20:30:33.429Z,14.32
2022-10-13T20:33:00.929Z,16.05
2022-10-13T20:35:28.502Z,13.90
2022-10-13T20:37:55.773Z,13.05
2022-10-13T20:40:22.967Z,13.70
2022-10-13T20:42:51.716Z,13.30
2022-10-13T20:45:19.816Z,13.32
2022-10-13T20:47:48.673Z,13.88
2022-10-13T20:50:16.016Z,13.60
2022-10-13T20:52:43.235Z,12.20
2022-10-13T20:55:10.527Z,12.75
2022-10-13T20:57:37.799Z,12.43
2022-10-13T21:00:05.838Z,13.55
2022-10-13T21:02:33.103Z,14.07
2022-10-13T21:05:00.337Z,12.63
2022-10-13T21:07:28.524Z,13.20
2022-10-13T21:09:55.829Z,13.43
2022-10-13T21:12:23.061Z,13.73
2022-10-13T21:14:50.252Z,12.77
2022-10-13T21:17:17.480Z,13.07
2022-10-13T21:19:44.685Z,12.65
2022-10-13T21:22:11.960Z,12.73
2022-10-13T21:24:39.557Z,12.20
2022-10-13T21:27:06.785Z,11.55
2022-10-13T21:29:33.975Z,13.02
2022-10-13T21:32:01.312Z,13.35
2022-10-13T21:34:28.658Z,13.10
2022-10-13T21:36:56.330Z,13.88
2022-10-13T21:39:23.999Z,14.25
2022-10-13T21:41:51.443Z,13.70
2022-10-13T21:44:18.733Z,13.90
2022-10-13T21:46:46.197Z,16.45
2022-10-13T21:49:13.922Z,16.25
2022-10-13T21:51:41.601Z,17.33
2022-10-13T21:54:10.979Z,16.02
2022-10-13T21:56:38.761Z,16.08
2022-10-13T21:59:06.714Z,16.35
2022-10-13T22:01:34.559Z,13.68
2022-10-13T22:04:02.688Z,16.40
2022-10-13T22:06:32.103Z,15.65
2022-10-13T22:09:00.663Z,16.50
2022-10-13T22:11:29.658Z,15.88
2022-10-13T22:13:57.647Z,14.00
2022-10-13T22:16:42.447Z,12.68
2022-10-13T22:19:10.752Z,15.10
2022-10-13T22:21:40.852Z,14.18
2022-10-13T22:24:09.786Z,13.60
2022-10-13T22:26:38.040Z,12.65
2022-10-13T22:29:06.922Z,11.02
